createdAt,value
2023-04-06T00:00:32.088Z,17.93
2023-04-06T00:03:00.824Z,15.33
2023-04-06T00:05:31.531Z,17.27
2023-04-06T00:08:01.770Z,20.27
2023-04-06T00:10:30.128Z,17.67
2023-04-06T00:12:58.632Z,24.33
2023-04-06T00:15:27.132Z,15.67
2023-04-06T00:17:55.617Z,18.90
2023-04-06T00:20:24.262Z,21.13
2023-04-06T00:22:52.699Z,19.03
2023-04-06T00:25:22.520Z,18.07
2023-04-06T00:27:51.010Z,19.20
2023-04-06T00:30:19.353Z,19.40
2023-04-06T00:32:48.124Z,20.10
2023-04-06T00:35:17.208Z,21.67
2023-04-06T00:37:45.703Z,17.53
2023-04-06T00:40:14.064Z,17.93
2023-04-06T00:42:43.815Z,20.73
2023-04-06T00:45:12.917Z,20.27
2023-04-06T00:47:41.526Z,18.80
2023-04-06T00:50:10.578Z,21.60
2023-04-06T00:52:39.005Z,21.23
2023-04-06T00:55:10.484Z,21.53
2023-04-06T00:57:44.669Z,20.73
2023-04-06T01:00:14.539Z,20.80
2023-04-06T01:02:46.176Z,21.30
2023-04-06T01:05:17.042Z,24.60
2023-04-06T01:07:52.887Z,20.70
2023-04-06T01:10:25.690Z,19.83
2023-04-06T01:12:59.213Z,23.50
2023-04-06T01:15:44.852Z,23.20
2023-04-06T01:18:17.494Z,20.17
2023-04-06T01:20:54.790Z,22.37
2023-04-06T01:23:27.722Z,26.17
2023-04-06T01:25:56.222Z,22.37
2023-04-06T01:28:25.222Z,31.57
2023-04-06T01:31:04.694Z,24.37
2023-04-06T01:33:52.079Z,23.67
2023-04-06T01:36:23.674Z,21.07
2023-04-06T01:39:01.964Z,25.07
2023-04-06T01:41:37.495Z,25.20
2023-04-06T01:44:06.792Z,23.63
2023-04-06T01:46:35.244Z,23.00
2023-04-06T01:49:06.424Z,23.03
2023-04-06T01:51:37.564Z,20.77
2023-04-06T01:54:10.041Z,23.27
2023-04-06T01:56:53.693Z,22.80
2023-04-06T01:59:33.383Z,23.20
2023-04-06T02:02:06.528Z,23.77
2023-04-06T02:04:36.788Z,27.43
2023-04-06T02:07:14.712Z,22.90
2023-04-06T02:09:45.748Z,22.43
2023-04-06T02:12:22.512Z,21.10
2023-04-06T02:14:51.029Z,20.00
2023-04-06T02:17:19.572Z,19.57
2023-04-06T02:19:48.327Z,20.27
2023-04-06T02:22:16.869Z,20.63
2023-04-06T02:24:47.672Z,21.63
2023-04-06T02:27:16.435Z,22.13
2023-04-06T02:29:48.938Z,20.53
2023-04-06T02:32:21.462Z,24.80
2023-04-06T02:34:51.040Z,20.87
2023-04-06T02:37:21.885Z,21.43
2023-04-06T02:39:51.674Z,23.90
2023-04-06T02:42:20.065Z,23.27
2023-04-06T02:44:51.153Z,22.47
2023-04-06T02:47:21.569Z,20.13
2023-04-06T02:49:52.540Z,23.80
2023-04-06T02:52:21.351Z,20.90
2023-04-06T02:54:49.755Z,20.60
2023-04-06T02:57:26.256Z,28.03
2023-04-06T02:59:54.812Z,25.80
2023-04-06T03:02:30.619Z,23.80
2023-04-06T03:05:07.162Z,22.30
2023-04-06T03:07:39.858Z,20.50
2023-04-06T03:10:12.874Z,22.20
2023-04-06T03:12:43.219Z,25.67
2023-04-06T03:15:12.285Z,26.67
2023-04-06T03:17:44.599Z,22.83
2023-04-06T03:20:22.209Z,22.80
2023-04-06T03:22:50.958Z,22.67
2023-04-06T03:25:23.503Z,25.77
2023-04-06T03:27:53.511Z,25.43
2023-04-06T03:30:23.040Z,25.07
2023-04-06T03:32:51.628Z,24.93
2023-04-06T03:35:21.470Z,23.50
2023-04-06T03:37:50.026Z,25.13
2023-04-06T03:40:18.610Z,23.13
2023-04-06T03:42:46.985Z,23.60
2023-04-06T03:45:19.253Z,26.57
2023-04-06T03:47:51.400Z,22.00
2023-04-06T03:50:21.397Z,27.97
2023-04-06T03:52:49.857Z,22.73
2023-04-06T03:55:18.356Z,23.53
2023-04-06T03:57:46.815Z,22.57
2023-04-06T04:00:15.886Z,23.97
2023-04-06T04:02:45.741Z,24.03
2023-04-06T04:05:14.355Z,26.83
2023-04-06T04:07:42.869Z,26.87
2023-04-06T04:10:13.200Z,23.03
2023-04-06T04:12:41.573Z,23.03
2023-04-06T04:15:10.445Z,26.73
2023-04-06T04:17:39.187Z,26.60
2023-04-06T04:20:10.378Z,32.07
2023-04-06T04:22:38.742Z,26.87
2023-04-06T04:25:07.563Z,22.30
2023-04-06T04:27:40.420Z,23.40
2023-04-06T04:30:09.520Z,21.10
2023-04-06T04:32:38.037Z,23.67
2023-04-06T04:35:11.101Z,26.90
2023-04-06T04:37:43.177Z,22.53
2023-04-06T04:40:13.183Z,23.67
2023-04-06T04:43:04.108Z,21.50
2023-04-06T04:45:35.940Z,21.43
2023-04-06T04:48:26.564Z,22.07
2023-04-06T04:51:03.581Z,20.57
2023-04-06T04:53:43.633Z,22.63
2023-04-06T04:56:21.582Z,26.40
2023-04-06T04:58:54.988Z,24.37
2023-04-06T05:01:24.094Z,25.00
2023-04-06T05:03:54.126Z,23.63
2023-04-06T05:06:24.090Z,26.57
2023-04-06T05:08:52.920Z,24.80
2023-04-06T05:11:22.607Z,24.80
2023-04-06T05:13:57.892Z,25.50
2023-04-06T05:16:27.339Z,28.80
2023-04-06T05:18:57.810Z,22.87
2023-04-06T05:21:30.938Z,27.53
2023-04-06T05:24:06.962Z,24.80
2023-04-06T05:26:36.511Z,23.93
2023-04-06T05:29:11.125Z,20.93
2023-04-06T05:31:40.808Z,24.87
2023-04-06T05:34:11.555Z,19.47
2023-04-06T05:36:43.881Z,23.63
2023-04-06T05:39:20.016Z,24.80
2023-04-06T05:41:52.318Z,22.90
2023-04-06T05:44:32.225Z,20.40
2023-04-06T05:47:09.251Z,21.07
2023-04-06T05:49:39.198Z,24.37
2023-04-06T05:52:14.673Z,20.43
2023-04-06T05:54:47.260Z,16.40
2023-04-06T05:57:17.437Z,22.67
2023-04-06T05:59:45.979Z,16.93
2023-04-06T06:02:16.539Z,17.47
2023-04-06T06:04:48.911Z,18.27
2023-04-06T06:07:20.317Z,21.80
2023-04-06T06:10:02.541Z,16.77
2023-04-06T06:12:35.052Z,18.63
2023-04-06T06:15:04.119Z,13.67
2023-04-06T06:17:38.485Z,16.87
2023-04-06T06:20:08.392Z,14.30
2023-04-06T06:22:38.238Z,15.70
2023-04-06T06:25:08.102Z,12.83
2023-04-06T06:27:36.598Z,12.97
2023-04-06T06:30:07.548Z,11.77
2023-04-06T06:32:37.557Z,13.63
2023-04-06T06:35:06.596Z,13.53
2023-04-06T06:37:35.771Z,12.37
2023-04-06T06:40:07.445Z,14.57
2023-04-06T06:42:37.914Z,14.03
2023-04-06T06:45:33.934Z,13.00
2023-04-06T06:48:02.444Z,12.10
2023-04-06T06:50:30.921Z,12.80
2023-04-06T06:52:59.624Z,13.90
2023-04-06T06:55:29.390Z,15.50
2023-04-06T06:57:57.983Z,14.03
2023-04-06T07:00:26.629Z,15.00
2023-04-06T07:02:56.146Z,13.87
2023-04-06T07:05:28.550Z,13.03
2023-04-06T07:07:59.364Z,12.47
2023-04-06T07:10:29.396Z,13.00
2023-04-06T07:12:57.841Z,12.20
2023-04-06T07:15:26.838Z,14.63
2023-04-06T07:17:55.902Z,14.17
2023-04-06T07:20:24.919Z,16.27
2023-04-06T07:22:53.369Z,16.60
2023-04-06T07:25:25.174Z,13.53
2023-04-06T07:27:55.549Z,15.17
2023-04-06T07:30:27.196Z,12.03
2023-04-06T07:32:57.369Z,13.20
2023-04-06T07:35:27.248Z,15.23
2023-04-06T07:37:56.594Z,14.87
2023-04-06T07:40:27.144Z,14.63
2023-04-06T07:42:58.520Z,13.50
2023-04-06T07:45:27.439Z,12.57
2023-04-06T07:47:56.666Z,17.25
2023-04-06T07:50:27.030Z,12.95
2023-04-06T07:52:56.346Z,14.15
2023-04-06T07:55:25.716Z,13.38
2023-04-06T07:57:54.254Z,12.40
2023-04-06T08:00:24.464Z,14.02
2023-04-06T08:02:52.886Z,13.70
2023-04-06T08:05:21.625Z,12.05
2023-04-06T08:07:50.403Z,15.93
2023-04-06T08:10:18.823Z,13.73
2023-04-06T08:12:47.265Z,14.52
2023-04-06T08:15:15.974Z,13.05
2023-04-06T08:17:45.803Z,13.43
2023-04-06T08:20:14.310Z,16.38
2023-04-06T08:22:42.747Z,11.13
2023-04-06T08:25:11.156Z,12.55
2023-04-06T08:27:39.654Z,11.32
2023-04-06T08:30:08.723Z,16.27
2023-04-06T08:32:37.129Z,13.00
2023-04-06T08:35:07.931Z,15.10
2023-04-06T08:37:36.274Z,14.40
2023-04-06T08:40:05.209Z,13.48
2023-04-06T08:42:35.213Z,15.38
2023-04-06T08:45:03.775Z,14.55
2023-04-06T08:47:32.449Z,15.00
2023-04-06T08:50:01.809Z,17.23
2023-04-06T08:52:32.314Z,18.50
2023-04-06T08:55:00.772Z,18.60
2023-04-06T08:57:29.681Z,18.23
2023-04-06T08:59:59.099Z,15.03
2023-04-06T09:02:27.698Z,15.93
2023-04-06T09:04:56.906Z,16.57
2023-04-06T09:07:25.957Z,17.53
2023-04-06T09:09:55.777Z,18.73
2023-04-06T09:12:28.290Z,16.43
2023-04-06T09:14:57.129Z,18.30
2023-04-06T09:17:25.663Z,16.13
2023-04-06T09:19:55.375Z,18.67
2023-04-06T09:22:25.585Z,17.93
2023-04-06T09:24:54.483Z,19.80
2023-04-06T09:27:34.352Z,18.10
2023-04-06T09:30:07.089Z,19.63
2023-04-06T09:32:35.932Z,19.00
2023-04-06T09:35:10.968Z,14.33
2023-04-06T09:37:41.099Z,17.93
2023-04-06T09:40:10.468Z,18.67
2023-04-06T09:42:40.502Z,16.38
2023-04-06T09:45:09.584Z,17.13
2023-04-06T09:47:38.882Z,16.75
2023-04-06T09:50:08.079Z,15.15
2023-04-06T09:52:40.498Z,13.32
2023-04-06T09:55:09.677Z,15.75
2023-04-06T09:57:44.774Z,15.70
2023-04-06T10:00:15.527Z,13.30
2023-04-06T10:02:48.346Z,12.77
2023-04-06T10:05:21.575Z,16.50
2023-04-06T10:08:00.465Z,16.93
2023-04-06T10:10:30.082Z,17.40
2023-04-06T10:13:01.038Z,14.53
2023-04-06T10:15:30.389Z,16.27
2023-04-06T10:17:59.269Z,15.82
2023-04-06T10:20:31.072Z,17.70
2023-04-06T10:23:02.410Z,14.85
2023-04-06T10:25:30.959Z,12.68
2023-04-06T10:28:04.629Z,14.77
2023-04-06T10:30:33.961Z,13.98
2023-04-06T10:33:02.541Z,13.98
2023-04-06T10:35:40.606Z,13.63
2023-04-06T10:38:09.410Z,16.43
2023-04-06T10:40:38.992Z,15.60
2023-04-06T10:43:12.653Z,13.80
2023-04-06T10:45:41.419Z,15.93
2023-04-06T10:48:19.974Z,17.00
2023-04-06T10:50:51.211Z,19.40
2023-04-06T10:53:24.574Z,12.67
2023-04-06T10:55:53.280Z,15.00
2023-04-06T10:58:23.319Z,12.83
2023-04-06T11:00:52.319Z,10.50
2023-04-06T11:03:21.483Z,12.37
2023-04-06T11:05:50.797Z,12.87
2023-04-06T11:08:25.831Z,11.43
2023-04-06T11:10:54.266Z,13.23
2023-04-06T11:13:24.034Z,12.20
2023-04-06T11:15:52.400Z,12.77
2023-04-06T11:18:21.308Z,12.57
2023-04-06T11:20:51.272Z,12.80
2023-04-06T11:23:26.566Z,11.90
2023-04-06T11:25:55.343Z,12.10
2023-04-06T11:28:25.185Z,12.90
2023-04-06T11:30:53.750Z,15.60
2023-04-06T11:33:25.750Z,13.77
2023-04-06T11:35:54.232Z,14.27
2023-04-06T11:38:22.787Z,12.40
2023-04-06T11:40:56.315Z,11.07
2023-04-06T11:43:30.227Z,10.37
2023-04-06T11:46:05.259Z,8.30
2023-04-06T11:48:34.550Z,7.72
2023-04-06T11:51:04.764Z,8.10
2023-04-06T11:53:34.431Z,7.85
2023-04-06T11:56:02.914Z,7.22
2023-04-06T11:58:33.630Z,6.88
2023-04-06T12:01:06.819Z,9.38
2023-04-06T12:03:36.433Z,12.25
2023-04-06T12:06:04.935Z,8.93
2023-04-06T12:08:33.351Z,9.47
2023-04-06T12:11:01.797Z,8.65
2023-04-06T12:13:30.834Z,10.63
2023-04-06T12:16:00.643Z,9.82
2023-04-06T12:18:29.106Z,10.35
2023-04-06T12:20:57.506Z,9.80
2023-04-06T12:23:25.957Z,9.60
2023-04-06T12:25:55.736Z,10.07
2023-04-06T12:28:27.978Z,8.63
2023-04-06T12:30:56.755Z,8.03
2023-04-06T12:33:26.741Z,14.00
2023-04-06T12:35:55.459Z,11.07
2023-04-06T12:38:24.320Z,11.57
2023-04-06T12:40:52.800Z,10.13
2023-04-06T12:43:21.205Z,9.87
2023-04-06T12:45:49.601Z,8.77
2023-04-06T12:48:17.984Z,10.60
2023-04-06T12:50:47.756Z,11.60
2023-04-06T12:53:16.212Z,10.57
2023-04-06T12:55:44.615Z,9.73
2023-04-06T12:58:13.331Z,8.60
2023-04-06T13:00:43.817Z,6.53
2023-04-06T13:03:12.372Z,6.83
2023-04-06T13:05:46.353Z,8.53
2023-04-06T13:08:16.787Z,11.63
2023-04-06T13:10:46.634Z,7.93
2023-04-06T13:13:14.973Z,11.93
2023-04-06T13:15:43.440Z,7.63
2023-04-06T13:18:11.921Z,9.73
2023-04-06T13:20:40.745Z,8.13
2023-04-06T13:23:09.109Z,10.03
2023-04-06T13:25:38.898Z,10.43
2023-04-06T13:28:07.365Z,11.57
2023-04-06T13:30:36.512Z,9.00
2023-04-06T13:33:05.847Z,7.10
2023-04-06T13:35:34.292Z,8.30
2023-04-06T13:38:02.689Z,7.87
2023-04-06T13:40:32.457Z,6.30
2023-04-06T13:43:02.232Z,7.97
2023-04-06T13:45:30.931Z,7.60
2023-04-06T13:47:59.438Z,9.00
2023-04-06T13:50:28.486Z,8.23
2023-04-06T13:52:57.230Z,8.53
2023-04-06T13:55:26.187Z,11.37
2023-04-06T13:57:54.560Z,7.80
2023-04-06T14:00:24.789Z,8.63
2023-04-06T14:02:53.260Z,10.17
2023-04-06T14:05:21.691Z,7.63
2023-04-06T14:07:50.066Z,8.63
2023-04-06T14:10:18.409Z,9.20
2023-04-06T14:12:46.987Z,9.20
2023-04-06T14:15:15.402Z,6.20
2023-04-06T14:17:45.232Z,9.10
2023-04-06T14:20:15.806Z,10.93
2023-04-06T14:22:44.518Z,8.40
2023-04-06T14:25:13.679Z,7.27
2023-04-06T14:27:42.157Z,9.27
2023-04-06T14:30:11.451Z,11.80
2023-04-06T14:32:39.991Z,8.60
2023-04-06T14:35:10.072Z,10.07
2023-04-06T14:37:38.518Z,8.57
2023-04-06T14:40:07.349Z,8.47
2023-04-06T14:42:35.752Z,8.70
2023-04-06T14:45:04.156Z,9.20
2023-04-06T14:47:32.650Z,9.73
2023-04-06T14:50:01.143Z,7.83
2023-04-06T14:52:32.803Z,7.60
2023-04-06T14:55:01.444Z,8.77
2023-04-06T14:57:29.867Z,7.97
2023-04-06T14:59:58.273Z,6.90
2023-04-06T15:02:26.975Z,10.20
2023-04-06T15:04:55.561Z,7.73
2023-04-06T15:07:23.890Z,8.63
2023-04-06T15:09:54.218Z,7.17
2023-04-06T15:12:22.559Z,8.67
2023-04-06T15:14:51.164Z,7.10
2023-04-06T15:17:19.656Z,9.93
2023-04-06T15:19:48.058Z,8.37
2023-04-06T15:22:16.418Z,8.90
2023-04-06T15:24:44.811Z,7.30
2023-04-06T15:27:14.622Z,10.37
2023-04-06T15:29:43.028Z,9.80
2023-04-06T15:32:12.438Z,7.73
2023-04-06T15:34:40.889Z,7.53
2023-04-06T15:37:09.750Z,8.40
2023-04-06T15:39:38.194Z,8.77
2023-04-06T15:42:06.737Z,9.10
2023-04-06T15:44:36.538Z,9.20
2023-04-06T15:47:04.960Z,7.93
2023-04-06T15:49:33.399Z,9.23
2023-04-06T15:52:02.143Z,7.77
2023-04-06T15:54:30.822Z,7.07
2023-04-06T15:56:59.223Z,7.17
2023-04-06T15:59:27.659Z,7.53
2023-04-06T16:01:57.551Z,6.97
2023-04-06T16:04:27.421Z,8.43
2023-04-06T16:06:55.900Z,8.57
2023-04-06T16:09:24.423Z,9.13
2023-04-06T16:11:53.152Z,9.67
2023-04-06T16:14:21.903Z,5.90
2023-04-06T16:16:50.875Z,6.73
2023-04-06T16:19:20.856Z,11.23
2023-04-06T16:21:49.152Z,6.33
2023-04-06T16:24:17.575Z,7.33
2023-04-06T16:26:46.599Z,8.30
2023-04-06T16:29:16.886Z,7.80
2023-04-06T16:31:47.248Z,6.93
2023-04-06T16:34:15.955Z,7.83
2023-04-06T16:36:46.479Z,10.50
2023-04-06T16:39:17.203Z,8.97
2023-04-06T16:41:45.820Z,12.97
2023-04-06T16:44:14.759Z,7.60
2023-04-06T16:46:44.038Z,9.50
2023-04-06T16:49:12.902Z,8.00
2023-04-06T16:51:42.248Z,7.97
2023-04-06T16:54:12.146Z,9.20
2023-04-06T16:56:40.593Z,9.33
2023-04-06T16:59:09.579Z,10.13
2023-04-06T17:01:38.578Z,8.83
2023-04-06T17:04:07.312Z,9.90
2023-04-06T17:06:35.841Z,9.20
2023-04-06T17:09:04.251Z,7.97
2023-04-06T17:11:45.949Z,8.50
2023-04-06T17:14:14.824Z,13.00
2023-04-06T17:16:43.304Z,9.17
2023-04-06T17:19:11.765Z,10.33
2023-04-06T17:21:41.708Z,8.70
2023-04-06T17:24:10.525Z,10.37
2023-04-06T17:26:40.483Z,9.63
2023-04-06T17:29:09.041Z,8.67
2023-04-06T17:31:37.752Z,9.97
2023-04-06T17:34:06.873Z,9.40
2023-04-06T17:36:35.267Z,10.47
2023-04-06T17:39:04.140Z,12.53
2023-04-06T17:41:34.426Z,12.43
2023-04-06T17:44:04.348Z,15.53
2023-04-06T17:46:32.876Z,12.67
2023-04-06T17:49:01.303Z,16.17
2023-04-06T17:51:29.736Z,12.50
2023-04-06T17:53:58.239Z,12.40
2023-04-06T17:56:26.690Z,15.63
2023-04-06T17:58:58.047Z,17.10
2023-04-06T18:01:28.260Z,12.47
2023-04-06T18:03:56.819Z,15.23
2023-04-06T18:06:26.436Z,15.07
2023-04-06T18:08:55.112Z,21.73
2023-04-06T18:11:23.684Z,18.77
2023-04-06T18:13:52.483Z,19.63
2023-04-06T18:16:21.948Z,19.23
2023-04-06T18:18:52.229Z,15.93
2023-04-06T18:21:20.640Z,15.37
2023-04-06T18:23:49.454Z,19.50
2023-04-06T18:26:19.104Z,17.90
2023-04-06T18:28:48.054Z,16.03
2023-04-06T18:31:16.620Z,18.97
2023-04-06T18:33:45.078Z,16.17
2023-04-06T18:36:14.910Z,16.57
2023-04-06T18:38:44.480Z,12.97
2023-04-06T18:41:12.897Z,15.93
2023-04-06T18:43:41.371Z,16.77
2023-04-06T18:46:12.479Z,13.07
2023-04-06T18:48:40.913Z,17.30
2023-04-06T18:51:09.486Z,16.37
2023-04-06T18:53:40.023Z,17.63
2023-04-06T18:56:15.552Z,16.77
2023-04-06T18:58:44.480Z,19.03
2023-04-06T19:01:13.122Z,17.77
2023-04-06T19:03:41.674Z,16.43
2023-04-06T19:06:10.232Z,14.70
2023-04-06T19:08:42.949Z,18.17
2023-04-06T19:11:11.923Z,20.20
2023-04-06T19:13:40.488Z,18.73
2023-04-06T19:16:10.525Z,15.87
2023-04-06T19:18:42.631Z,17.20
2023-04-06T19:21:16.724Z,15.47
2023-04-06T19:23:46.845Z,16.67
2023-04-06T19:26:15.626Z,16.40
2023-04-06T19:28:44.922Z,14.03
2023-04-06T19:31:14.472Z,14.97
2023-04-06T19:33:43.118Z,13.80
2023-04-06T19:36:11.815Z,14.07
2023-04-06T19:38:40.579Z,15.07
2023-04-06T19:41:10.441Z,13.67
2023-04-06T19:43:38.844Z,15.23
2023-04-06T19:46:09.105Z,11.37
2023-04-06T19:48:37.663Z,12.40
2023-04-06T19:51:06.102Z,13.83
2023-04-06T19:53:34.516Z,13.07
2023-04-06T19:56:02.888Z,18.30
2023-04-06T19:58:33.449Z,13.70
2023-04-06T20:01:01.861Z,11.33
2023-04-06T20:03:36.754Z,13.17
2023-04-06T20:06:09.925Z,11.60
2023-04-06T20:08:38.437Z,14.20
2023-04-06T20:11:07.581Z,11.30
2023-04-06T20:13:37.686Z,11.23
2023-04-06T20:16:06.112Z,11.47
2023-04-06T20:18:34.531Z,11.47
2023-04-06T20:21:02.954Z,17.23
2023-04-06T20:23:31.350Z,18.00
2023-04-06T20:25:59.691Z,13.17
2023-04-06T20:28:28.593Z,15.67
2023-04-06T20:30:58.454Z,12.30
2023-04-06T20:33:26.840Z,14.67
2023-04-06T20:35:58.566Z,13.90
2023-04-06T20:38:33.035Z,14.83
2023-04-06T20:41:02.310Z,15.93
2023-04-06T20:43:31.601Z,13.13
2023-04-06T20:46:02.711Z,15.03
2023-04-06T20:48:33.474Z,18.70
2023-04-06T20:51:03.149Z,13.57
2023-04-06T20:53:31.824Z,15.23
2023-04-06T20:56:00.315Z,15.93
2023-04-06T20:58:28.739Z,15.53
2023-04-06T21:00:57.118Z,19.53
2023-04-06T21:03:27.043Z,15.57
2023-04-06T21:05:57.232Z,19.00
2023-04-06T21:08:25.689Z,18.87
2023-04-06T21:10:54.052Z,19.67
2023-04-06T21:13:22.451Z,16.33
2023-04-06T21:15:51.770Z,19.00
2023-04-06T21:18:20.903Z,17.87
2023-04-06T21:20:50.904Z,15.73
2023-04-06T21:23:19.302Z,19.90
2023-04-06T21:25:47.712Z,16.03
2023-04-06T21:28:16.087Z,19.40
2023-04-06T21:30:44.744Z,16.93
2023-04-06T21:33:13.566Z,17.93
2023-04-06T21:35:42.281Z,17.23
2023-04-06T21:38:12.075Z,18.73
2023-04-06T21:40:40.760Z,19.70
2023-04-06T21:43:10.645Z,16.10
2023-04-06T21:45:40.208Z,18.03
2023-04-06T21:48:08.912Z,18.30
2023-04-06T21:50:41.079Z,16.50
2023-04-06T21:53:09.730Z,20.07
2023-04-06T21:55:43.806Z,19.20
2023-04-06T21:58:12.210Z,20.03
2023-04-06T22:00:40.863Z,21.10
2023-04-06T22:03:09.409Z,16.97
2023-04-06T22:05:38.181Z,19.47
2023-04-06T22:08:07.392Z,19.07
2023-04-06T22:10:36.617Z,18.03
2023-04-06T22:13:06.372Z,17.67
2023-04-06T22:15:35.223Z,19.57
2023-04-06T22:18:03.704Z,16.83
2023-04-06T22:20:32.298Z,18.80
2023-04-06T22:23:00.707Z,21.30
2023-04-06T22:25:29.402Z,18.70
2023-04-06T22:27:57.763Z,16.23
2023-04-06T22:30:27.549Z,20.23
2023-04-06T22:32:56.000Z,19.27
2023-04-06T22:35:24.512Z,16.10
2023-04-06T22:37:52.922Z,23.07
2023-04-06T22:40:21.278Z,20.90
2023-04-06T22:42:49.630Z,18.77
2023-04-06T22:45:18.117Z,21.80
2023-04-06T22:47:47.961Z,20.30
2023-04-06T22:50:17.002Z,19.53
2023-04-06T22:52:45.603Z,20.73
2023-04-06T22:55:14.258Z,18.97
2023-04-06T22:57:42.701Z,19.60
2023-04-06T23:00:11.919Z,20.60
2023-04-06T23:02:40.569Z,19.17
2023-04-06T23:05:11.159Z,22.57
2023-04-06T23:07:39.531Z,20.27
2023-04-06T23:10:08.841Z,18.80
2023-04-06T23:12:37.282Z,18.27
2023-04-06T23:15:05.971Z,19.20
2023-04-06T23:17:34.326Z,19.70
2023-04-06T23:20:02.775Z,19.53
2023-04-06T23:22:32.532Z,17.23
2023-04-06T23:25:01.148Z,17.87
2023-04-06T23:27:29.549Z,19.70
2023-04-06T23:29:58.003Z,20.07
2023-04-06T23:32:26.594Z,21.10
2023-04-06T23:34:55.073Z,17.87
2023-04-06T23:37:23.495Z,20.43
2023-04-06T23:39:53.484Z,17.30
2023-04-06T23:42:21.870Z,16.80
2023-04-06T23:44:57.396Z,19.03
2023-04-06T23:47:25.989Z,17.80
2023-04-06T23:49:54.486Z,17.87
2023-04-06T23:52:22.848Z,16.60
2023-04-06T23:54:52.636Z,16.57
2023-04-06T23:57:21.063Z,15.50
2023-04-06T23:59:49.442Z,18.63
